Flight Track Log - Related Links

Times and Time Zones

All times are in EDT time to prevent confusion due to time zone crossing. See the FDX1254 flight status page for this flight to view local times or setup timezone preferences in your user account.

Time Position Orientation Groundspeed Altitude Reporting Facility
EDT Latitude Longitude Course Direction KTS MPH feet Rate Location/Type
Mon 08:59:51 PM 41.8720 -71.4540 348° North 250 288 6,100  Level FlightAware ADS-B
Mon 09:00:16 PM 41.9020 -71.4760 331° Northwest 247 284 7,600 2,945 Climbing FlightAware ADS-B
Mon 09:00:46 PM 41.9130 -71.5150 291° West 263 303 8,800 2,667 Climbing FlightAware ADS-B
Mon 09:01:28 PM 41.9210 -71.5840 279° West 287 330 10,800 2,188 Climbing FlightAware ADS-B
Mon 09:02:11 PM 41.9320 -71.6680 280° West 337 388 11,900 2,220 Climbing FlightAware ADS-B
Mon 09:03:08 PM 41.9610 -71.7940 287° West 364 419 14,500 2,761 Climbing FlightAware ADS-B
Mon 09:04:04 PM 41.9940 -71.9100 291° West 371 427 17,100 2,439 Climbing FlightAware ADS-B
Mon 09:05:21 PM 42.0370 -72.0570 292° West 19,900 2,290 Climbing FlightAware ADS-B
Mon 09:06:15 PM 42.0370 -72.0570 292° West 390 449 22,100 2,367 Climbing FlightAware ADS-B
Mon 09:07:10 PM 42.1140 -72.3250 291° West 392 451 24,200 2,317 Climbing FlightAware ADS-B
Mon 09:07:56 PM 42.1440 -72.4300 291° West 387 445 26,000 2,242 Climbing FlightAware ADS-B
Mon 09:08:41 PM 42.1730 -72.5320 291° West 381 438 27,600 1,765 Climbing FlightAware ADS-B
Mon 09:09:21 PM 42.1980 -72.6150 292° West 391 450 28,500 1,531 Climbing FlightAware ADS-B
Mon 09:10:19 PM 42.2370 -72.7560 291° West 395 455 30,100 1,892 Climbing FlightAware ADS-B
Mon 09:11:31 PM 42.2750 -72.8900 291° West 374 430 32,600 1,487 Climbing FlightAware ADS-B
Mon 09:12:12 PM 42.3000 -72.9820 290° West 373 429 32,900 234 Climbing FlightAware ADS-B
Mon 09:12:48 PM 42.3180 -73.0500 290° West 373 429 32,900 3,176 Level FlightAware ADS-B
Mon 09:13:03 PM 42.2790 -73.0930 219° Southwest 365 420 35,600 2,613 Climbing FlightAware ADS-B
Mon 09:13:50 PM 42.2690 -73.2040 263° West 365 420 35,600 250 Level FlightAware ADS-B
Mon 09:14:39 PM 42.2580 -73.3230 263° West 349 402 36,000 255 Climbing FlightAware ADS-B
Mon 09:15:24 PM 42.2490 -73.4340 264° West 359 413 36,000  Level FlightAware ADS-B
Mon 09:16:10 PM 42.2390 -73.5340 262° West 361 415 36,000  Level FlightAware ADS-B
Mon 09:16:53 PM 42.2310 -73.6330 264° West 361 415 36,000  Level FlightAware ADS-B
Mon 09:17:36 PM 42.2215 -73.7310 263° West 362 417 36,000  Level FlightAware ADS-B
Mon 09:18:13 PM 42.2138 -73.8127 263° West 360 414 36,000  Level FlightAware ADS-B
Mon 09:18:43 PM 42.2076 -73.8787 263° West 356 410 36,000  Level FlightAware ADS-B
Mon 09:19:14 PM 42.2013 -73.9444 263° West 355 409 36,000  Level FlightAware ADS-B
Mon 09:19:45 PM 42.1949 -74.0143 263° West 353 406 36,000  Level FlightAware ADS-B
Mon 09:20:18 PM 42.1880 -74.0859 263° West 350 403 36,000  Level FlightAware ADS-B
Mon 09:20:51 PM 42.1812 -74.1546 262° West 348 400 36,000  Level FlightAware ADS-B
Mon 09:21:29 PM 42.1740 -74.2320 263° West 346 398 36,000  Level FlightAware ADS-B
Mon 09:21:46 PM 42.1696 -74.2748 262° West 348 400 36,000  Level FlightAware ADS-B
Mon 09:22:19 PM 42.1627 -74.3459 263° West 349 402 36,000  Level FlightAware ADS-B
Mon 09:22:56 PM 42.1549 -74.4236 262° West 351 404 36,000  Level FlightAware ADS-B
Mon 09:23:41 PM 42.1452 -74.5211 262° West 352 405 36,000  Level FlightAware ADS-B
Mon 09:24:12 PM 42.1383 -74.5907 262° West 353 406 36,000  Level FlightAware ADS-B
Mon 09:24:43 PM 42.1315 -74.6582 262° West 354 407 36,000  Level FlightAware ADS-B
Mon 09:25:13 PM 42.1249 -74.7238 262° West 355 409 36,000  Level FlightAware ADS-B
Mon 09:25:49 PM 42.1168 -74.8030 262° West 357 411 36,000  Level FlightAware ADS-B
Mon 09:26:29 PM 42.1078 -74.8914 262° West 358 412 36,000  Level FlightAware ADS-B
Mon 09:27:12 PM 42.0980 -74.9843 262° West 359 413 36,000  Level FlightAware ADS-B
Mon 09:27:49 PM 42.0900 -75.0660 263° West 359 413 36,000  Level FlightAware ADS-B
Mon 09:28:22 PM 42.0817 -75.1411 262° West 359 413 36,000  Level FlightAware ADS-B
Mon 09:29:00 PM 42.0726 -75.2253 262° West 359 413 36,000  Level FlightAware ADS-B
Mon 09:29:27 PM 42.0661 -75.2850 262° West 360 414 36,000  Level FlightAware ADS-B
Mon 09:29:45 PM 42.0579 -75.3241 254° West 366 421 36,000  Level FlightAware ADS-B
Mon 09:30:30 PM 42.0221 -75.4166 243° Southwest 375 432 36,000  Level FlightAware ADS-B
Mon 09:31:03 PM 41.9941 -75.4836 241° Southwest 376 433 36,000  Level FlightAware ADS-B
Mon 09:32:00 PM 41.9470 -75.5980 241° Southwest 375 432 36,000  Level FlightAware ADS-B
Mon 09:32:44 PM 41.9090 -75.6890 241° Southwest 375 432 36,000  Level FlightAware ADS-B
Mon 09:33:26 PM 41.8750 -75.7730 241° Southwest 375 432 36,000  Level FlightAware ADS-B
Mon 09:34:06 PM 41.8400 -75.8560 241° Southwest 375 432 36,000  Level FlightAware ADS-B
Mon 09:34:18 PM 41.8300 -75.8785 239° Southwest 375 432 36,000  Level FlightAware ADS-B
Mon 09:34:56 PM 41.7970 -75.9578 241° Southwest 377 434 36,000  Level FlightAware ADS-B
Mon 09:35:32 PM 41.7670 -76.0292 241° Southwest 377 434 36,000  Level FlightAware ADS-B
Mon 09:36:02 PM 41.7407 -76.0921 241° Southwest 377 434 36,000  Level FlightAware ADS-B
Mon 09:36:36 PM 41.7121 -76.1593 240° Southwest 378 435 36,000  Level FlightAware ADS-B
Mon 09:37:09 PM 41.6836 -76.2285 241° Southwest 378 435 36,000  Level FlightAware ADS-B
Mon 09:37:41 PM 41.6564 -76.2915 240° Southwest 378 435 36,000  Level FlightAware ADS-B
Mon 09:38:14 PM 41.6281 -76.3580 240° Southwest 374 430 36,000  Level FlightAware ADS-B
Mon 09:38:45 PM 41.6014 -76.4221 241° Southwest 372 428 36,000  Level FlightAware ADS-B
Mon 09:39:20 PM 41.5722 -76.4901 240° Southwest 373 429 36,000  Level FlightAware ADS-B
Mon 09:39:51 PM 41.5457 -76.5521 240° Southwest 373 429 36,000  Level FlightAware ADS-B
Mon 09:40:23 PM 41.5178 -76.6184 241° Southwest 375 432 36,000  Level FlightAware ADS-B
Mon 09:40:54 PM 41.4908 -76.6806 240° Southwest 376 433 36,000  Level FlightAware ADS-B
Mon 09:41:27 PM 41.4627 -76.7471 241° Southwest 378 435 36,000  Level FlightAware ADS-B
Mon 09:42:00 PM 41.4343 -76.8118 240° Southwest 379 436 36,000  Level FlightAware ADS-B
Mon 09:42:32 PM 41.4060 -76.8788 241° Southwest 380 437 36,000  Level FlightAware ADS-B
Mon 09:43:07 PM 41.3751 -76.9496 240° Southwest 379 436 36,000  Level FlightAware ADS-B
Mon 09:43:48 PM 41.3390 -77.0327 240° Southwest 379 436 36,000  Level FlightAware ADS-B
Mon 09:44:19 PM 41.3125 -77.0931 240° Southwest 379 436 36,000  Level FlightAware ADS-B
Mon 09:44:50 PM 41.2851 -77.1575 240° Southwest 379 436 36,000  Level FlightAware ADS-B
Mon 09:45:54 PM 41.2320 -77.2800 240° Southwest 377 434 36,000  Level FlightAware ADS-B
Mon 09:46:44 PM 41.1890 -77.3760 239° Southwest 376 433 36,000  Level FlightAware ADS-B
Mon 09:47:24 PM 41.1530 -77.4580 240° Southwest 377 434 36,000  Level FlightAware ADS-B
Mon 09:48:04 PM 41.1180 -77.5380 240° Southwest 377 434 36,000  Level FlightAware ADS-B
Mon 09:48:49 PM 41.0790 -77.6280 240° Southwest 377 434 36,000  Level FlightAware ADS-B
Mon 09:49:34 PM 41.0390 -77.7160 239° Southwest 378 435 36,000  Level FlightAware ADS-B
Mon 09:50:09 PM 41.0090 -77.7840 240° Southwest 380 437 36,000  Level FlightAware ADS-B
Mon 09:50:54 PM 40.9670 -77.8780 239° Southwest 380 437 36,000  Level FlightAware ADS-B
Mon 09:51:34 PM 40.9310 -77.9580 239° Southwest 380 437 36,000  Level FlightAware ADS-B
Mon 09:51:54 PM 40.9190 -78.0030 251° West 368 423 36,000  Level FlightAware ADS-B
Mon 09:52:34 PM 40.9130 -78.0890 265° West 363 418 36,000  Level FlightAware ADS-B
Mon 09:53:14 PM 40.9100 -78.1780 267° West 363 418 36,000  Level FlightAware ADS-B
Mon 09:53:59 PM 40.9070 -78.2770 268° West 362 417 36,000  Level FlightAware ADS-B
Mon 09:54:39 PM 40.9040 -78.3680 268° West 361 415 36,000  Level FlightAware ADS-B
Mon 09:55:20 PM 40.9010 -78.4490 267° West 362 417 36,000  Level FlightAware ADS-B
Mon 09:56:04 PM 40.8970 -78.5550 267° West 361 415 36,000  Level FlightAware ADS-B
Mon 09:56:44 PM 40.8940 -78.6430 267° West 360 414 36,000  Level FlightAware ADS-B
Mon 09:57:29 PM 40.8900 -78.7350 267° West 359 413 36,000  Level FlightAware ADS-B
Mon 09:58:09 PM 40.8870 -78.8290 268° West 359 413 36,000  Level FlightAware ADS-B
Mon 09:58:54 PM 40.8830 -78.9280 267° West 360 414 36,000  Level FlightAware ADS-B
Mon 09:59:34 PM 40.8800 -79.0140 267° West 360 414 36,000  Level FlightAware ADS-B
Mon 10:00:14 PM 40.8760 -79.1040 267° West 361 415 36,000  Level FlightAware ADS-B
Mon 10:00:55 PM 40.8720 -79.1920 267° West 362 417 36,000  Level FlightAware ADS-B
Mon 10:01:39 PM 40.8680 -79.2890 267° West 363 418 36,000  Level FlightAware ADS-B
Mon 10:02:24 PM 40.8640 -79.3890 267° West 365 420 36,000  Level FlightAware ADS-B
Mon 10:03:04 PM 40.8600 -79.4780 267° West 365 420 36,000  Level FlightAware ADS-B
Mon 10:03:44 PM 40.8560 -79.5680 267° West 367 422 36,000  Level FlightAware ADS-B
Mon 10:04:24 PM 40.8520 -79.6520 266° West 367 422 36,000  Level FlightAware ADS-B
Mon 10:05:10 PM 40.8470 -79.7660 267° West 366 421 36,000  Level FlightAware ADS-B
Mon 10:05:53 PM 40.8420 -79.8620 266° West 366 421 36,000  Level FlightAware ADS-B
Mon 10:06:33 PM 40.8380 -79.9540 267° West 366 421 36,000  Level FlightAware ADS-B
Mon 10:07:15 PM 40.8330 -80.0480 266° West 367 422 36,000  Level FlightAware ADS-B
Mon 10:07:56 PM 40.8290 -80.1370 267° West 368 423 36,000  Level FlightAware ADS-B
Mon 10:08:54 PM 40.8280 -80.2660 269° West 371 427 36,000  Level FlightAware ADS-B
Mon 10:09:35 PM 40.8330 -80.3590 274° West 373 429 36,000  Level FlightAware ADS-B
Mon 10:10:15 PM 40.8380 -80.4540 274° West 374 430 36,000  Level FlightAware ADS-B
Mon 10:11:00 PM 40.8430 -80.5550 274° West 376 433 36,000  Level FlightAware ADS-B
Mon 10:11:41 PM 40.8470 -80.6520 273° West 377 434 36,000  Level FlightAware ADS-B
Mon 10:12:24 PM 40.8520 -80.7480 274° West 379 436 36,000  Level FlightAware ADS-B
Mon 10:13:04 PM 40.8570 -80.8430 274° West 381 438 36,000  Level FlightAware ADS-B
Mon 10:13:49 PM 40.8610 -80.9450 273° West 382 440 36,000  Level FlightAware ADS-B
Mon 10:14:30 PM 40.8660 -81.0430 274° West 382 440 36,000  Level FlightAware ADS-B
Mon 10:15:11 PM 40.8700 -81.1370 273° West 382 440 36,000  Level FlightAware ADS-B
Mon 10:15:52 PM 40.8740 -81.2340 273° West 381 438 36,000  Level FlightAware ADS-B
Mon 10:16:34 PM 40.8780 -81.3290 273° West 379 436 36,000  Level FlightAware ADS-B
Mon 10:17:17 PM 40.8830 -81.4290 274° West 378 435 36,000  Level FlightAware ADS-B
Mon 10:18:01 PM 40.8870 -81.5300 273° West 377 434 36,000  Level FlightAware ADS-B
Mon 10:18:42 PM 40.8910 -81.6240 273° West 376 433 36,000  Level FlightAware ADS-B
Mon 10:19:26 PM 40.8950 -81.7270 273° West 377 434 36,000  Level FlightAware ADS-B
Mon 10:20:05 PM 40.8960 -81.8150 271° West 377 434 36,000  Level FlightAware ADS-B
Mon 10:20:46 PM 40.8980 -81.9120 272° West 379 436 36,000  Level FlightAware ADS-B
Mon 10:21:29 PM 40.9000 -81.9930 272° West 379 436 36,000 -341 Level FlightAware ADS-B
Mon 10:22:14 PM 40.9020 -82.1130 271° West 379 436 35,500 -1,059 Descending FlightAware ADS-B
Mon 10:22:54 PM 40.9040 -82.2070 272° West 387 445 34,500 -1,463 Descending FlightAware ADS-B
Mon 10:23:36 PM 40.9060 -82.3090 272° West 392 451 33,500 -1,390 Descending FlightAware ADS-B
Mon 10:24:16 PM 40.9070 -82.4020 271° West 395 455 32,600 -1,537 Descending FlightAware ADS-B
Mon 10:24:58 PM 40.9100 -82.5070 272° West 403 464 31,400 -1,143 Descending FlightAware ADS-B
Mon 10:25:40 PM 40.9150 -82.6100 274° West 419 482 31,000 -273 Descending FlightAware ADS-B
Mon 10:26:26 PM 40.9200 -82.7280 273° West 417 480 31,000  Level FlightAware ADS-B
Mon 10:27:06 PM 40.9230 -82.8310 272° West 414 476 31,000  Level FlightAware ADS-B
Mon 10:27:48 PM 40.9270 -82.9370 273° West 412 474 31,000  Level FlightAware ADS-B
Mon 10:28:28 PM 40.9300 -83.0330 272° West 411 473 31,000  Level FlightAware ADS-B
Mon 10:29:10 PM 40.9340 -83.1410 273° West 410 472 31,000  Level FlightAware ADS-B
Mon 10:29:54 PM 40.9380 -83.2480 273° West 412 474 31,000 -847 Level FlightAware ADS-B
Mon 10:30:35 PM 40.9410 -83.3550 272° West 415 478 29,800 -2,444 Descending FlightAware ADS-B
Mon 10:31:15 PM 40.9450 -83.4550 273° West 407 468 27,700 -3,977 Descending FlightAware ADS-B
Mon 10:32:01 PM 40.9480 -83.5730 272° West 425 489 24,100 -4,047 Descending FlightAware ADS-B
Mon 10:32:41 PM 40.9510 -83.6760 272° West 419 482 21,900 -3,500 Descending FlightAware ADS-B
Mon 10:33:25 PM 40.9550 -83.7850 273° West 394 453 19,200 -3,675 Descending FlightAware ADS-B
Mon 10:34:01 PM 40.9570 -83.8720 272° West 395 455 17,000 -3,459 Descending FlightAware ADS-B
Mon 10:34:50 PM 40.9600 -83.9910 272° West 387 445 14,300 -2,764 Descending FlightAware ADS-B
Mon 10:35:30 PM 40.9630 -84.0850 272° West 382 440 12,900 -1,976 Descending FlightAware ADS-B
Mon 10:36:12 PM 40.9650 -84.1830 272° West 374 430 11,600 -1,373 Descending FlightAware ADS-B
Mon 10:36:53 PM 40.9670 -84.2740 272° West 373 429 11,000 -439 Descending FlightAware ADS-B
Mon 10:37:34 PM 40.9690 -84.3680 272° West 349 402 11,000  Level FlightAware ADS-B
Mon 10:38:18 PM 40.9700 -84.4540 271° West 295 339 11,000 -357 Level FlightAware ADS-B
Mon 10:38:58 PM 40.9710 -84.5220 271° West 282 325 10,500 -1,071 Descending FlightAware ADS-B
Mon 10:39:42 PM 40.9720 -84.5990 271° West 275 316 9,500 -1,397 Descending FlightAware ADS-B
Mon 10:40:11 PM 40.9730 -84.6440 272° West 274 315 8,800 -1,652 Descending FlightAware ADS-B
Mon 10:40:51 PM 40.9740 -84.7110 271° West 271 312 7,600 -1,114 Descending FlightAware ADS-B
Mon 10:41:21 PM 40.9740 -84.7560 270° West 271 312 7,500 -1,500 Descending FlightAware ADS-B
Mon 10:41:59 PM 40.9831 -84.8147 270° West 273 314 5,900 -1,860 Descending Chicago Center
Mon 10:43:01 PM 41.0025 -84.9081 285° West 268 308 4,400 -1,122 Descending Chicago Center
Mon 10:44:02 PM 41.0183 -84.9975 283° West 261 300 3,600 -878 Descending Chicago Center
Mon 10:45:04 PM 41.0322 -85.0719 284° West 236 272 2,600 -780 Descending Chicago Center
Mon 10:46:05 PM 41.0289 -85.1275 265° West 194 223 2,000 -590 Descending Chicago Center

Login

Don't have an account? Register now (free) for customized features, flight alerts, and more!